This is the latest recevied weather packets stored in our database for station/object KC1TEM-13. If no packets are shown the sender has not sent any weather packets the latest 10 day(s).
| Time | Temp. | Humidity | Pressure | Rain* | Wind** | Luminosity | Snow |
|---|---|---|---|---|---|---|---|
| 1777606796 | 9.44° C | 98% | 1007 hPa | 0 mm | - | 0 W/m² | - |
| 1777606492 | 9.44° C | 98% | 1007.1 hPa | 0 mm | - | 0 W/m² | - |
| 1777606188 | 9.44° C | 98% | 1007 hPa | 0 mm | - | 0 W/m² | - |
| 1777605884 | 9.44° C | 97% | 1007.2 hPa | 0 mm | - | 0 W/m² | - |
| 1777605579 | 9.44° C | 97% | 1007.1 hPa | 0 mm | - | 0 W/m² | - |
| 1777605273 | 9.44° C | 97% | 1007.1 hPa | 0 mm | - | 0 W/m² | - |
| 1777604971 | 9.44° C | 97% | 1007.3 hPa | 0 mm | - | 0 W/m² | - |
| 1777604666 | 9.44° C | 97% | 1007.2 hPa | 0 mm | - | 0 W/m² | - |
| 1777604363 | 9.44° C | 97% | 1007.2 hPa | 0 mm | - | 0 W/m² | - |
| 1777604062 | 9.44° C | 97% | 1007.1 hPa | 0 mm | - | 0 W/m² | - |
| 1777603760 | 9.44° C | 97% | 1007.4 hPa | 0 mm | - | 0 W/m² | - |
| 1777603456 | 9.44° C | 97% | 1007.1 hPa | 0 mm | - | 0 W/m² | - |
| 1777603152 | 9.44° C | 97% | 1007.3 hPa | 0 mm | - | 0 W/m² | - |
| 1777602848 | 9.44° C | 97% | 1007.2 hPa | 0 mm | - | 0 W/m² | - |
| 1777602543 | 9.44° C | 97% | 1007.2 hPa | 0 mm | - | 0 W/m² | - |
| 1777602239 | 9.44° C | 97% | 1007.3 hPa | 0 mm | - | 0 W/m² | - |
| 1777601935 | 9.44° C | 97% | 1007.4 hPa | 0 mm | - | 0 W/m² | - |
| 1777601634 | 9.44° C | 97% | 1007.4 hPa | 0 mm | - | 0 W/m² | - |
| 1777601027 | 9.44° C | 97% | 1007.4 hPa | 0 mm | - | 0 W/m² | - |
| 1777600724 | 9.44° C | 97% | 1007.6 hPa | 0 mm | - | 0 W/m² | - |
| 1777587074 | 11.67° C | 91% | 1005.8 hPa | 0 mm | - | 61 W/m² | - |
| 1777584949 | 11.67° C | 90% | 1005.9 hPa | 0 mm | - | 89 W/m² | - |
| 1777584647 | 11.67° C | 90% | 1005.9 hPa | 0 mm | - | 75 W/m² | - |
| 1777584343 | 11.67° C | 91% | 1005.9 hPa | 0 mm | - | 96 W/m² | - |
| 1777583433 | 11.11° C | 93% | 1005.7 hPa | 0 mm | - | 156 W/m² | - |
* Rain latest hour (hover to see other rain measurements)
** Current wind speed in m/s (hover to see current wind gust speed)